createdAt,value
2019-01-12T00:01:58.919Z,4.00
2019-01-12T00:04:30.147Z,4.00
2019-01-12T00:07:01.139Z,4.80
2019-01-12T00:09:42.334Z,4.30
2019-01-12T00:12:23.355Z,4.20
2019-01-12T00:15:07.777Z,4.10
2019-01-12T00:17:38.603Z,4.40
2019-01-12T00:20:09.216Z,4.40
2019-01-12T00:22:40.581Z,5.10
2019-01-12T00:25:11.216Z,5.30
2019-01-12T00:27:42.130Z,5.30
2019-01-12T00:30:13.958Z,5.90
2019-01-12T00:32:45.210Z,5.30
2019-01-12T00:35:16.392Z,5.70
2019-01-12T00:37:47.167Z,6.10
2019-01-12T00:40:18.191Z,5.80
2019-01-12T00:42:49.227Z,5.70
2019-01-12T00:45:20.230Z,5.50
2019-01-12T00:47:51.355Z,5.40
2019-01-12T00:50:32.272Z,5.50
2019-01-12T00:53:16.222Z,5.40
2019-01-12T00:55:49.139Z,5.10
2019-01-12T00:58:20.186Z,5.20
2019-01-12T01:00:51.469Z,5.80
2019-01-12T01:03:22.395Z,6.60
2019-01-12T01:06:03.326Z,6.50
2019-01-12T01:08:34.384Z,6.60
2019-01-12T01:11:05.499Z,7.00
2019-01-12T01:13:36.910Z,7.50
2019-01-12T01:16:08.081Z,7.70
2019-01-12T01:18:40.079Z,7.80
2019-01-12T01:21:11.399Z,7.40
2019-01-12T01:23:42.347Z,7.60
2019-01-12T01:26:13.255Z,7.40
2019-01-12T01:28:44.183Z,7.90
2019-01-12T01:31:15.068Z,8.10
2019-01-12T01:33:45.928Z,8.50
2019-01-12T01:36:16.927Z,8.50
2019-01-12T01:38:47.756Z,8.80
2019-01-12T01:41:18.353Z,8.50
2019-01-12T01:43:49.371Z,9.30
2019-01-12T01:46:20.093Z,9.30
2019-01-12T01:48:51.147Z,9.10
2019-01-12T01:51:22.018Z,9.30
2019-01-12T01:53:52.874Z,9.10
2019-01-12T01:56:23.888Z,9.10
2019-01-12T01:58:54.460Z,9.30
2019-01-12T02:01:25.552Z,9.80
2019-01-12T02:03:56.275Z,10.20
2019-01-12T02:06:27.236Z,10.30
2019-01-12T02:08:58.406Z,10.30
2019-01-12T02:11:29.242Z,10.80
2019-01-12T02:14:10.299Z,9.30
2019-01-12T02:16:40.874Z,9.40
2019-01-12T02:19:11.686Z,9.40
2019-01-12T02:21:42.959Z,9.60
2019-01-12T02:24:13.890Z,9.50
2019-01-12T02:26:44.870Z,9.40
2019-01-12T02:29:15.893Z,8.40
2019-01-12T02:31:46.796Z,8.80
2019-01-12T02:34:17.862Z,8.00
2019-01-12T02:36:58.880Z,8.30
2019-01-12T02:39:29.939Z,7.40
2019-01-12T02:42:00.878Z,7.10
2019-01-12T02:44:31.881Z,6.80
2019-01-12T02:47:02.581Z,6.50
2019-01-12T02:49:33.462Z,6.90
2019-01-12T02:52:04.570Z,6.60
2019-01-12T02:54:35.132Z,6.60
2019-01-12T02:57:15.967Z,6.90
2019-01-12T02:59:47.248Z,6.20
2019-01-12T03:02:18.385Z,6.20
2019-01-12T03:04:58.896Z,6.50
2019-01-12T03:07:39.948Z,6.40
2019-01-12T03:10:13.142Z,6.50
2019-01-12T03:12:43.965Z,6.50
2019-01-12T03:15:15.449Z,6.00
2019-01-12T03:17:46.294Z,6.00
2019-01-12T03:20:17.120Z,6.20
2019-01-12T03:22:47.952Z,6.10
2019-01-12T03:25:18.523Z,6.40
2019-01-12T03:27:49.226Z,5.70
2019-01-12T03:30:20.283Z,6.10
2019-01-12T03:32:51.263Z,5.70
2019-01-12T03:35:22.267Z,6.00
2019-01-12T03:37:53.500Z,6.00
2019-01-12T03:40:24.597Z,6.70
2019-01-12T03:42:56.267Z,6.40
2019-01-12T03:45:26.805Z,6.50
2019-01-12T03:47:57.794Z,5.70
2019-01-12T03:50:29.078Z,5.30
2019-01-12T03:52:59.662Z,5.80
2019-01-12T03:55:30.489Z,6.20
2019-01-12T03:58:01.107Z,5.60
2019-01-12T04:00:32.011Z,5.90
2019-01-12T04:03:02.747Z,5.50
2019-01-12T04:05:33.818Z,5.60
2019-01-12T04:08:04.599Z,5.60
2019-01-12T04:10:35.536Z,5.70
2019-01-12T04:13:08.752Z,5.30
2019-01-12T04:15:39.508Z,4.90
2019-01-12T04:18:23.121Z,4.90
2019-01-12T04:20:53.606Z,4.50
2019-01-12T04:23:23.782Z,5.10
2019-01-12T04:26:00.855Z,5.00
2019-01-12T04:28:34.101Z,4.60
2019-01-12T04:31:05.124Z,4.50
2019-01-12T04:33:36.033Z,4.40
2019-01-12T04:36:06.914Z,4.20
2019-01-12T04:38:37.396Z,4.30
2019-01-12T04:41:08.420Z,3.90
2019-01-12T04:43:39.325Z,3.30
2019-01-12T04:46:10.279Z,2.70
2019-01-12T04:48:54.148Z,2.60
2019-01-12T04:51:25.099Z,3.10
2019-01-12T04:53:56.122Z,3.90
2019-01-12T04:56:27.207Z,3.10
2019-01-12T04:58:58.059Z,2.60
2019-01-12T05:01:28.936Z,2.60
2019-01-12T05:03:59.954Z,2.70
2019-01-12T05:06:31.233Z,3.00
2019-01-12T05:09:01.956Z,3.10
2019-01-12T05:11:32.741Z,3.00
2019-01-12T05:14:03.978Z,3.00
2019-01-12T05:16:34.494Z,3.10
2019-01-12T05:19:05.710Z,2.10
2019-01-12T05:21:46.341Z,1.10
2019-01-12T05:24:17.403Z,1.00
2019-01-12T05:26:48.552Z,1.00
2019-01-12T05:29:19.345Z,1.00
2019-01-12T05:31:50.738Z,1.00
2019-01-12T05:34:21.341Z,1.00
2019-01-12T05:36:52.243Z,1.00
2019-01-12T05:39:23.193Z,1.00
2019-01-12T05:41:54.142Z,1.00
2019-01-12T05:44:24.871Z,1.00
2019-01-12T05:46:56.116Z,1.00
2019-01-12T05:49:27.074Z,1.00
2019-01-12T05:51:57.896Z,1.00
2019-01-12T05:54:29.204Z,1.00
2019-01-12T05:57:00.170Z,1.00
2019-01-12T05:59:41.300Z,1.00
2019-01-12T06:02:12.855Z,1.00
2019-01-12T06:04:43.801Z,1.00
2019-01-12T06:07:14.853Z,1.00
2019-01-12T06:09:45.868Z,1.00
2019-01-12T06:12:36.120Z,1.00
2019-01-12T06:15:10.469Z,1.00
2019-01-12T06:17:44.351Z,1.00
2019-01-12T06:20:15.640Z,1.00
2019-01-12T06:22:46.847Z,1.00
2019-01-12T06:25:17.850Z,1.00
2019-01-12T06:27:48.682Z,1.00
2019-01-12T06:30:26.671Z,1.00
2019-01-12T06:32:57.629Z,1.00
2019-01-12T06:35:28.171Z,1.00
2019-01-12T06:37:59.258Z,1.00
2019-01-12T06:40:29.959Z,1.00
2019-01-12T06:43:10.895Z,1.00
2019-01-12T06:45:51.796Z,1.00
2019-01-12T06:48:32.621Z,1.00
2019-01-12T06:51:03.528Z,1.00
2019-01-12T06:53:43.165Z,1.00
2019-01-12T06:56:24.089Z,1.00
2019-01-12T06:58:59.594Z,1.00
2019-01-12T07:01:39.918Z,1.00
2019-01-12T07:04:20.728Z,1.00
2019-01-12T07:07:00.825Z,1.00
2019-01-12T07:09:34.429Z,1.00
2019-01-12T07:12:15.182Z,1.00
2019-01-12T07:14:58.711Z,1.00
2019-01-12T07:17:39.797Z,1.00
2019-01-12T07:22:58.921Z,1.00
2019-01-12T07:25:39.780Z,1.00
2019-01-12T07:28:20.785Z,1.00
2019-01-12T07:31:01.801Z,1.00
2019-01-12T07:33:43.035Z,1.00
2019-01-12T07:36:19.766Z,1.00
2019-01-12T07:39:00.775Z,1.00
2019-01-12T07:41:41.383Z,1.00
2019-01-12T07:44:22.706Z,1.00
2019-01-12T07:47:03.885Z,1.00
2019-01-12T07:49:44.684Z,1.00
2019-01-12T07:52:26.292Z,1.00
2019-01-12T07:55:07.455Z,1.00
2019-01-12T07:57:47.994Z,1.00
2019-01-12T08:00:29.041Z,1.00
2019-01-12T08:03:10.248Z,1.00
2019-01-12T08:05:52.150Z,1.00
2019-01-12T08:08:32.757Z,1.00
2019-01-12T08:11:04.034Z,1.00
2019-01-12T08:13:45.083Z,1.00
2019-01-12T08:16:16.261Z,1.00
2019-01-12T08:18:54.742Z,1.00
2019-01-12T08:21:25.712Z,1.00
2019-01-12T08:23:56.238Z,1.00
2019-01-12T08:26:31.161Z,1.00
2019-01-12T08:28:59.886Z,1.00
2019-01-12T08:31:31.585Z,1.00
2019-01-12T08:34:02.681Z,1.00
2019-01-12T08:36:39.805Z,1.00
2019-01-12T08:39:21.180Z,1.00
2019-01-12T08:41:52.669Z,1.00
2019-01-12T08:44:23.705Z,1.00
2019-01-12T08:46:54.784Z,1.00
2019-01-12T08:49:26.315Z,1.00
2019-01-12T08:51:57.381Z,1.00
2019-01-12T08:54:28.123Z,1.00
2019-01-12T08:56:59.446Z,1.00
2019-01-12T08:59:30.696Z,1.00
2019-01-12T09:02:01.413Z,1.00
2019-01-12T09:04:32.507Z,1.00
2019-01-12T09:07:03.391Z,1.00
2019-01-12T09:09:34.513Z,1.00
2019-01-12T09:12:06.206Z,1.00
2019-01-12T09:14:37.220Z,1.00
2019-01-12T09:17:07.900Z,1.00
2019-01-12T09:19:39.059Z,1.00
2019-01-12T09:22:10.114Z,1.00
2019-01-12T09:24:41.651Z,1.00
2019-01-12T09:27:12.403Z,1.00
2019-01-12T09:29:43.480Z,1.00
2019-01-12T09:32:15.594Z,1.00
2019-01-12T09:34:47.267Z,1.00
2019-01-12T09:37:18.251Z,1.00
2019-01-12T09:39:51.433Z,1.00
2019-01-12T09:42:22.035Z,1.00
2019-01-12T09:45:01.819Z,1.00
2019-01-12T09:47:43.209Z,1.00
2019-01-12T09:50:19.165Z,1.00
2019-01-12T09:52:50.102Z,1.00
2019-01-12T09:55:21.166Z,1.00
2019-01-12T09:57:53.018Z,1.00
2019-01-12T10:00:24.480Z,1.00
2019-01-12T10:02:55.597Z,1.00
2019-01-12T10:05:26.739Z,1.00
2019-01-12T10:07:55.262Z,1.00
2019-01-12T10:10:26.214Z,1.00
2019-01-12T10:12:55.225Z,1.00
2019-01-12T10:15:26.636Z,1.00
2019-01-12T10:18:10.411Z,1.00
2019-01-12T10:20:41.121Z,1.00
2019-01-12T10:23:12.308Z,1.00
2019-01-12T10:25:43.629Z,1.00
2019-01-12T10:28:14.580Z,1.00
2019-01-12T10:30:45.941Z,1.00
2019-01-12T10:33:27.280Z,1.00
2019-01-12T10:36:08.646Z,1.00
2019-01-12T10:38:49.663Z,1.00
2019-01-12T10:41:31.071Z,1.00
2019-01-12T10:44:20.111Z,1.00
2019-01-12T10:47:00.082Z,1.00
2019-01-12T10:49:41.132Z,1.00
2019-01-12T10:52:22.161Z,1.00
2019-01-12T10:55:02.352Z,1.00
2019-01-12T10:57:33.589Z,1.00
2019-01-12T11:00:07.916Z,1.00
2019-01-12T11:02:39.232Z,1.00
2019-01-12T11:05:10.468Z,1.00
2019-01-12T11:07:41.742Z,1.00
2019-01-12T11:10:13.654Z,1.00
2019-01-12T11:12:44.957Z,1.00
2019-01-12T11:15:21.038Z,1.00
2019-01-12T11:17:51.991Z,1.00
2019-01-12T11:20:23.175Z,1.00
2019-01-12T11:22:54.506Z,1.00
2019-01-12T11:25:25.476Z,1.00
2019-01-12T11:27:56.610Z,1.00
2019-01-12T11:30:36.400Z,1.00
2019-01-12T11:33:17.700Z,1.00
2019-01-12T11:35:58.705Z,1.00
2019-01-12T11:38:39.867Z,1.00
2019-01-12T11:41:24.485Z,1.00
2019-01-12T11:46:43.925Z,1.00
2019-01-12T11:49:25.253Z,1.00
2019-01-12T11:52:05.804Z,1.00
2019-01-12T11:54:54.477Z,1.00
2019-01-12T11:57:35.655Z,1.00
2019-01-12T12:00:22.564Z,1.00
2019-01-12T12:03:03.208Z,1.00
2019-01-12T12:05:44.312Z,1.00
2019-01-12T12:08:25.284Z,1.00
2019-01-12T12:11:05.628Z,1.00
2019-01-12T12:13:46.957Z,1.00
2019-01-12T12:16:27.875Z,1.00
2019-01-12T12:19:09.294Z,1.00
2019-01-12T12:21:40.682Z,1.00
2019-01-12T12:24:12.094Z,1.00
2019-01-12T12:26:42.784Z,1.00
2019-01-12T12:29:24.115Z,1.00
2019-01-12T12:31:55.455Z,1.00
2019-01-12T12:34:26.461Z,1.00
2019-01-12T12:36:57.545Z,1.00
2019-01-12T12:39:28.992Z,1.00
2019-01-12T12:42:00.330Z,1.00
2019-01-12T12:44:32.501Z,1.00
2019-01-12T12:47:03.821Z,1.00
2019-01-12T12:49:35.171Z,1.00
2019-01-12T12:52:06.602Z,1.00
2019-01-12T12:54:39.381Z,1.00
2019-01-12T12:57:10.696Z,1.00
2019-01-12T12:59:52.011Z,1.00
2019-01-12T13:02:23.589Z,1.40
2019-01-12T13:04:54.844Z,1.90
2019-01-12T13:07:25.980Z,2.50
2019-01-12T13:09:57.261Z,3.00
2019-01-12T13:12:28.728Z,3.30
2019-01-12T13:14:59.825Z,3.40
2019-01-12T13:17:30.875Z,3.90
2019-01-12T13:20:01.919Z,4.20
2019-01-12T13:22:32.868Z,4.40
2019-01-12T13:25:13.681Z,4.40
2019-01-12T13:27:45.020Z,4.70
2019-01-12T13:30:19.947Z,5.10
2019-01-12T13:32:51.064Z,5.10
2019-01-12T13:35:22.374Z,5.30
2019-01-12T13:37:53.500Z,5.20
2019-01-12T13:40:27.472Z,5.20
2019-01-12T13:42:58.636Z,5.70
2019-01-12T13:45:29.767Z,5.60
2019-01-12T13:48:10.730Z,5.70
2019-01-12T13:50:52.081Z,5.70
2019-01-12T13:53:23.325Z,6.30
2019-01-12T13:55:54.444Z,6.40
2019-01-12T13:58:25.754Z,6.30
2019-01-12T14:00:57.229Z,6.40
2019-01-12T14:03:28.157Z,6.70
2019-01-12T14:05:59.941Z,6.30
2019-01-12T14:08:30.982Z,6.00
2019-01-12T14:11:02.119Z,6.50
2019-01-12T14:13:34.093Z,6.50
2019-01-12T14:16:05.227Z,6.60
2019-01-12T14:18:36.423Z,6.80
2019-01-12T14:21:07.329Z,7.30
2019-01-12T14:23:38.572Z,7.10
2019-01-12T14:26:11.259Z,6.70
2019-01-12T14:28:42.322Z,6.30
2019-01-12T14:31:13.583Z,6.70
2019-01-12T14:33:44.383Z,6.60
2019-01-12T14:36:23.945Z,7.00
2019-01-12T14:39:08.283Z,6.70
2019-01-12T14:41:55.714Z,6.70
2019-01-12T14:44:35.078Z,6.50
2019-01-12T14:47:15.953Z,6.60
2019-01-12T14:49:47.167Z,6.80
2019-01-12T14:52:28.330Z,6.90
2019-01-12T14:55:12.937Z,6.90
2019-01-12T14:58:02.619Z,7.10
2019-01-12T15:00:41.133Z,7.10
2019-01-12T15:03:22.597Z,7.00
2019-01-12T15:06:04.096Z,6.70
2019-01-12T15:11:13.503Z,7.10
2019-01-12T15:13:44.638Z,6.90
2019-01-12T15:16:15.802Z,7.50
2019-01-12T15:18:46.883Z,7.40
2019-01-12T15:21:18.444Z,6.70
2019-01-12T15:23:49.187Z,6.70
2019-01-12T15:26:20.470Z,7.00
2019-01-12T15:28:51.507Z,7.90
2019-01-12T15:31:23.412Z,7.80
2019-01-12T15:33:54.926Z,8.50
2019-01-12T15:36:26.323Z,7.70
2019-01-12T15:38:57.349Z,7.30
2019-01-12T15:41:28.705Z,8.30
2019-01-12T15:44:00.950Z,8.30
2019-01-12T15:46:31.773Z,7.40
2019-01-12T15:49:03.376Z,8.00
2019-01-12T15:51:34.457Z,7.30
2019-01-12T15:54:05.810Z,8.40
2019-01-12T15:56:55.144Z,8.40
2019-01-12T15:59:39.167Z,7.80
2019-01-12T16:02:20.246Z,8.60
2019-01-12T16:04:51.383Z,8.50
2019-01-12T16:07:22.876Z,9.20
2019-01-12T16:09:54.054Z,9.20
2019-01-12T16:12:24.561Z,8.70
2019-01-12T16:14:55.541Z,9.50
2019-01-12T16:17:27.721Z,9.50
2019-01-12T16:19:58.731Z,9.60
2019-01-12T16:22:29.295Z,9.40
2019-01-12T16:25:00.279Z,9.70
2019-01-12T16:27:31.362Z,9.20
2019-01-12T16:30:02.523Z,9.00
2019-01-12T16:32:33.521Z,9.50
2019-01-12T16:35:05.271Z,9.10
2019-01-12T16:37:37.036Z,9.40
2019-01-12T16:40:09.916Z,8.60
2019-01-12T16:42:40.987Z,8.60
2019-01-12T16:45:22.856Z,8.60
2019-01-12T16:47:53.918Z,8.70
2019-01-12T16:50:24.737Z,8.80
2019-01-12T16:53:05.310Z,8.50
2019-01-12T16:55:36.547Z,7.30
2019-01-12T16:58:07.460Z,6.80
2019-01-12T17:00:38.458Z,6.50
2019-01-12T17:03:10.096Z,6.90
2019-01-12T17:05:41.371Z,6.90
2019-01-12T17:08:12.982Z,6.60
2019-01-12T17:10:44.178Z,6.20
2019-01-12T17:13:16.786Z,6.50
2019-01-12T17:15:48.270Z,6.30
2019-01-12T17:18:19.306Z,6.40
2019-01-12T17:20:50.441Z,6.40
2019-01-12T17:23:22.047Z,6.60
2019-01-12T17:25:53.031Z,6.60
2019-01-12T17:28:24.453Z,6.90
2019-01-12T17:30:55.264Z,7.30
2019-01-12T17:33:26.262Z,7.70
2019-01-12T17:35:57.380Z,7.10
2019-01-12T17:38:28.432Z,7.20
2019-01-12T17:40:59.827Z,7.40
2019-01-12T17:43:31.094Z,7.90
2019-01-12T17:46:18.042Z,7.70
2019-01-12T17:48:49.364Z,7.90
2019-01-12T17:51:20.257Z,7.00
2019-01-12T17:53:51.458Z,5.50
2019-01-12T17:56:23.016Z,5.50
2019-01-12T17:58:54.349Z,5.00
2019-01-12T18:01:25.948Z,3.90
2019-01-12T18:04:01.954Z,3.30
2019-01-12T18:06:33.298Z,3.20
2019-01-12T18:09:05.443Z,3.80
2019-01-12T18:11:37.376Z,4.30
2019-01-12T18:14:08.636Z,4.70
2019-01-12T18:16:41.111Z,5.00
2019-01-12T18:19:11.919Z,5.10
2019-01-12T18:21:43.659Z,4.70
2019-01-12T18:24:14.763Z,4.90
2019-01-12T18:26:46.347Z,5.40
2019-01-12T18:29:17.441Z,6.40
2019-01-12T18:31:48.629Z,6.10
2019-01-12T18:34:21.260Z,6.40
2019-01-12T18:36:52.394Z,6.70
2019-01-12T18:39:23.053Z,7.30
2019-01-12T18:41:54.275Z,7.60
2019-01-12T18:44:25.319Z,7.70
2019-01-12T18:46:56.343Z,6.60
2019-01-12T18:49:27.372Z,6.50
2019-01-12T18:51:59.004Z,6.30
2019-01-12T18:54:30.121Z,6.70
2019-01-12T18:57:11.137Z,6.40
2019-01-12T18:59:42.511Z,6.50
2019-01-12T19:02:13.679Z,7.20
2019-01-12T19:04:45.581Z,7.20
2019-01-12T19:07:34.584Z,7.70
2019-01-12T19:10:07.144Z,7.80
2019-01-12T19:12:37.794Z,8.90
2019-01-12T19:15:12.507Z,8.10
2019-01-12T19:17:42.442Z,7.60
2019-01-12T19:20:15.404Z,8.00
2019-01-12T19:22:46.875Z,7.70
2019-01-12T19:25:18.105Z,7.90
2019-01-12T19:27:49.564Z,8.10
2019-01-12T19:30:22.033Z,7.70
2019-01-12T19:32:53.276Z,8.00
2019-01-12T19:35:24.486Z,8.30
2019-01-12T19:37:55.188Z,8.40
2019-01-12T19:40:25.310Z,8.80
2019-01-12T19:42:56.674Z,7.60
2019-01-12T19:45:27.751Z,7.60
2019-01-12T19:47:58.658Z,7.50
2019-01-12T19:50:29.291Z,6.80
2019-01-12T19:53:00.245Z,6.80
2019-01-12T19:55:31.616Z,6.90
2019-01-12T19:58:02.779Z,6.70
2019-01-12T20:00:33.498Z,7.20
2019-01-12T20:03:04.594Z,6.50
2019-01-12T20:05:36.381Z,6.30
2019-01-12T20:08:07.026Z,5.90
2019-01-12T20:10:37.737Z,5.50
2019-01-12T20:13:08.906Z,5.30
2019-01-12T20:15:40.352Z,4.90
2019-01-12T20:18:11.270Z,4.70
2019-01-12T20:20:41.898Z,4.90
2019-01-12T20:23:12.936Z,4.30
2019-01-12T20:25:44.348Z,4.20
2019-01-12T20:28:15.389Z,4.10
2019-01-12T20:30:52.609Z,4.50
2019-01-12T20:33:27.728Z,5.00
2019-01-12T20:36:06.154Z,5.00
2019-01-12T20:38:59.704Z,4.70
2019-01-12T20:41:56.767Z,4.70
2019-01-12T20:44:42.686Z,3.40
2019-01-12T20:47:23.770Z,2.90
2019-01-12T20:49:56.897Z,2.80
2019-01-12T20:52:45.039Z,2.50
2019-01-12T20:55:34.475Z,2.10
2019-01-12T20:58:24.226Z,3.20
2019-01-12T21:01:07.442Z,4.40
2019-01-12T21:03:51.886Z,5.10
2019-01-12T21:06:41.827Z,5.40
2019-01-12T21:09:26.976Z,4.90
2019-01-12T21:12:21.987Z,4.80
2019-01-12T21:14:54.749Z,5.90
2019-01-12T21:17:25.722Z,6.70
2019-01-12T21:19:56.603Z,6.80
2019-01-12T21:22:27.691Z,6.90
2019-01-12T21:24:59.027Z,6.80
2019-01-12T21:27:30.138Z,6.90
2019-01-12T21:30:12.439Z,6.90
2019-01-12T21:32:43.434Z,7.10
2019-01-12T21:35:14.758Z,7.10
2019-01-12T21:37:46.289Z,7.50
2019-01-12T21:40:17.341Z,7.30
2019-01-12T21:42:48.544Z,7.00
2019-01-12T21:45:19.520Z,6.30
2019-01-12T21:47:50.779Z,6.40
2019-01-12T21:50:22.205Z,6.60
2019-01-12T21:52:53.456Z,6.40
2019-01-12T21:55:24.737Z,6.50
2019-01-12T21:57:55.940Z,6.40
2019-01-12T22:00:26.948Z,6.20
2019-01-12T22:02:58.083Z,6.60
2019-01-12T22:05:39.132Z,7.10
2019-01-12T22:08:19.649Z,6.80
2019-01-12T22:11:00.639Z,7.10
2019-01-12T22:13:34.305Z,6.90
2019-01-12T22:16:22.892Z,6.80
2019-01-12T22:18:54.450Z,7.40
2019-01-12T22:21:25.586Z,7.00
2019-01-12T22:23:56.600Z,6.50
2019-01-12T22:26:27.626Z,6.90
2019-01-12T22:29:08.890Z,7.40
2019-01-12T22:31:50.252Z,7.60
2019-01-12T22:34:30.975Z,8.00
2019-01-12T22:37:02.189Z,8.00
2019-01-12T22:39:40.247Z,8.30
2019-01-12T22:42:11.243Z,7.60
2019-01-12T22:44:42.170Z,7.60
2019-01-12T22:47:13.212Z,7.50
2019-01-12T22:49:44.260Z,7.00
2019-01-12T22:52:15.301Z,6.70
2019-01-12T22:54:46.415Z,6.60
2019-01-12T22:57:17.284Z,6.60
2019-01-12T22:59:57.085Z,6.20
2019-01-12T23:02:34.586Z,6.10
2019-01-12T23:05:06.135Z,6.20
2019-01-12T23:07:37.218Z,6.70
2019-01-12T23:10:12.826Z,6.40
2019-01-12T23:12:43.739Z,5.90
2019-01-12T23:15:14.853Z,5.10
2019-01-12T23:17:55.550Z,5.10
2019-01-12T23:20:26.603Z,5.20
2019-01-12T23:22:57.528Z,4.60
2019-01-12T23:25:38.104Z,5.00
2019-01-12T23:28:19.534Z,5.00
2019-01-12T23:30:50.800Z,5.20
2019-01-12T23:33:32.062Z,5.30
2019-01-12T23:36:03.581Z,4.70
2019-01-12T23:38:35.962Z,4.60
2019-01-12T23:41:06.700Z,5.50
2019-01-12T23:43:37.999Z,4.40
2019-01-12T23:46:08.741Z,3.80
2019-01-12T23:48:39.696Z,3.70
2019-01-12T23:51:10.791Z,4.00
2019-01-12T23:53:42.302Z,4.10
2019-01-12T23:56:23.342Z,4.10
2019-01-12T23:58:54.915Z,4.40
